Time;durP1;ratioP1;P1;durP2;ratioP2;P2;SDS_P1;SDS_P2;PMS_P1;PMS_P2;Temp;Humidity;BMP_temperature;BMP_pressure;BME280_temperature;BME280_humidity;BME280_pressure;Samples;Min_cycle;Max_cycle;Signal;HPM_P1;HPM_P2
2022/12/19 00:00:16;;;;;;;38.23;20.70;;;;;;;;;;4980395;28;20214;-69
2022/12/19 00:02:41;;;;;;;37.97;20.80;;;;;;;;;;4973446;28;20695;-70
2022/12/19 00:05:06;;;;;;;40.10;20.53;;;;;;;;;;4971865;28;20625;-69
2022/12/19 00:07:31;;;;;;;38.00;19.90;;;;;;;;;;4973438;28;20221;-70
2022/12/19 00:09:57;;;;;;;40.63;20.90;;;;;;;;;;4972944;28;20764;-70
2022/12/19 00:12:23;;;;;;;37.13;19.07;;;;;;;;;;4972277;28;20221;-70
2022/12/19 00:14:48;;;;;;;38.33;19.73;;;;;;;;;;4986505;28;20220;-70
2022/12/19 00:17:14;;;;;;;38.17;20.30;;;;;;;;;;4975116;28;20257;-69
2022/12/19 00:19:39;;;;;;;36.63;19.00;;;;;;;;;;4972841;28;20216;-70
2022/12/19 00:22:04;;;;;;;36.87;19.90;;;;;;;;;;4972751;28;20217;-70
2022/12/19 00:24:29;;;;;;;39.77;21.10;;;;;;;;;;4973031;28;20669;-70
2022/12/19 00:26:55;;;;;;;41.07;21.27;;;;;;;;;;4972182;28;20221;-70
2022/12/19 00:29:20;;;;;;;41.33;21.13;;;;;;;;;;4972892;28;20636;-70
2022/12/19 00:31:46;;;;;;;43.83;21.50;;;;;;;;;;4976220;28;20209;-70
2022/12/19 00:34:11;;;;;;;37.93;19.73;;;;;;;;;;4975624;28;20219;-70
2022/12/19 00:36:36;;;;;;;39.30;20.87;;;;;;;;;;4976955;28;20301;-70
2022/12/19 00:39:02;;;;;;;37.20;20.60;;;;;;;;;;4976198;28;20206;-69
2022/12/19 00:41:29;;;;;;;37.80;20.50;;;;;;;;;;4975687;28;20289;-70
2022/12/19 00:43:55;;;;;;;42.00;21.03;;;;;;;;;;4976715;28;20283;-70
2022/12/19 00:46:20;;;;;;;41.30;20.77;;;;;;;;;;4976063;28;20651;-70
2022/12/19 00:48:46;;;;;;;39.43;20.77;;;;;;;;;;4975991;28;20213;-70
2022/12/19 00:51:12;;;;;;;39.93;21.37;;;;;;;;;;4976026;28;20213;-69
2022/12/19 00:53:37;;;;;;;41.90;21.03;;;;;;;;;;4976699;28;20297;-70
2022/12/19 00:56:03;;;;;;;47.23;21.80;;;;;;;;;;4978010;28;20308;-70
2022/12/19 00:58:28;;;;;;;41.80;20.20;;;;;;;;;;4976612;28;20268;-70
2022/12/19 01:00:54;;;;;;;40.50;21.50;;;;;;;;;;5000989;28;20292;-70
2022/12/19 01:03:19;;;;;;;40.20;20.60;;;;;;;;;;4995294;28;20263;-70
2022/12/19 01:05:44;;;;;;;41.93;21.43;;;;;;;;;;4995572;28;20730;-70
2022/12/19 01:08:09;;;;;;;42.83;22.27;;;;;;;;;;4994560;28;20213;-70
2022/12/19 01:10:35;;;;;;;44.00;21.77;;;;;;;;;;4995393;28;20213;-70
2022/12/19 01:13:00;;;;;;;38.17;20.77;;;;;;;;;;4995536;28;20585;-69
2022/12/19 01:15:25;;;;;;;40.27;20.60;;;;;;;;;;4998612;28;20291;-69
2022/12/19 01:17:50;;;;;;;38.53;20.70;;;;;;;;;;5015102;28;20299;-69
2022/12/19 01:20:17;;;;;;;41.23;21.47;;;;;;;;;;5014559;28;20273;-69
2022/12/19 01:22:42;;;;;;;44.20;21.37;;;;;;;;;;5014058;28;20209;-70
2022/12/19 01:25:08;;;;;;;44.40;22.07;;;;;;;;;;5014689;28;20220;-68
2022/12/19 01:27:33;;;;;;;41.60;20.40;;;;;;;;;;5014780;28;20212;-69
2022/12/19 01:29:58;;;;;;;42.43;21.33;;;;;;;;;;5014148;28;20290;-70
2022/12/19 01:32:23;;;;;;;39.10;20.40;;;;;;;;;;5014239;28;20212;-70
2022/12/19 01:34:49;;;;;;;43.27;21.57;;;;;;;;;;5014990;28;20208;-69
2022/12/19 01:37:15;;;;;;;43.17;21.67;;;;;;;;;;5013632;28;20220;-69
2022/12/19 01:39:40;;;;;;;41.83;20.90;;;;;;;;;;5014902;28;20219;-69
2022/12/19 01:42:13;;;;;;;38.93;21.10;;;;;;;;;;5012337;28;20212;-69
2022/12/19 01:44:39;;;;;;;41.03;20.60;;;;;;;;;;5013954;28;20282;-69
2022/12/19 01:47:04;;;;;;;41.50;21.03;;;;;;;;;;5013887;28;20696;-69
2022/12/19 01:49:30;;;;;;;39.53;20.57;;;;;;;;;;5014874;28;20293;-69
2022/12/19 01:51:56;;;;;;;39.53;20.47;;;;;;;;;;5013564;28;20217;-69
2022/12/19 01:54:24;;;;;;;45.03;22.37;;;;;;;;;;5014107;28;20288;-69
2022/12/19 01:56:50;;;;;;;49.50;23.30;;;;;;;;;;4998373;28;20217;-70
2022/12/19 01:59:15;;;;;;;42.73;21.90;;;;;;;;;;4995782;28;20212;-69
2022/12/19 02:01:46;;;;;;;37.07;20.67;;;;;;;;;;5014306;28;20220;-68
2022/12/19 02:04:12;;;;;;;45.67;23.03;;;;;;;;;;4992106;28;20656;-69
2022/12/19 02:06:37;;;;;;;44.50;22.37;;;;;;;;;;4986151;28;20265;-69
2022/12/19 02:09:02;;;;;;;48.40;23.20;;;;;;;;;;4984254;28;20267;-69
2022/12/19 02:11:31;;;;;;;45.07;23.67;;;;;;;;;;4979855;28;20213;-69
2022/12/19 02:13:56;;;;;;;39.23;21.13;;;;;;;;;;4974072;28;20601;-70
2022/12/19 02:16:27;;;;;;;44.57;23.77;;;;;;;;;;4976967;28;20217;-69
2022/12/19 02:18:56;;;;;;;39.83;20.10;;;;;;;;;;4999157;28;20205;-69
2022/12/19 02:21:32;;;;;;;39.73;21.93;;;;;;;;;;4988578;28;20221;-69
2022/12/19 02:24:04;;;;;;;47.20;23.63;;;;;;;;;;5003942;28;20667;-70
2022/12/19 02:26:36;;;;;;;47.33;23.07;;;;;;;;;;4972794;28;20313;-69
2022/12/19 02:29:04;;;;;;;41.80;22.00;;;;;;;;;;4983100;28;20684;-69
2022/12/19 02:31:37;;;;;;;39.97;20.97;;;;;;;;;;4984328;28;20224;-69
2022/12/19 02:34:06;;;;;;;39.93;21.00;;;;;;;;;;4986852;28;20278;-69
2022/12/19 02:36:33;;;;;;;41.23;22.70;;;;;;;;;;4976146;28;20281;-69
2022/12/19 02:39:01;;;;;;;42.83;22.17;;;;;;;;;;4971551;28;20774;-70
2022/12/19 02:41:41;;;;;;;43.93;22.00;;;;;;;;;;4988310;28;20259;-69
2022/12/19 02:44:07;;;;;;;47.30;23.47;;;;;;;;;;4982320;28;20256;-69
2022/12/19 02:46:32;;;;;;;40.97;20.70;;;;;;;;;;4983349;28;20666;-69
2022/12/19 02:48:57;;;;;;;42.17;22.13;;;;;;;;;;4984224;28;20264;-69
2022/12/19 02:51:23;;;;;;;46.87;22.73;;;;;;;;;;4982074;28;20687;-69
2022/12/19 02:53:48;;;;;;;44.37;22.80;;;;;;;;;;4983142;28;20263;-70
2022/12/19 02:56:22;;;;;;;42.70;21.53;;;;;;;;;;4970677;28;20439;-69
2022/12/19 02:58:48;;;;;;;41.63;22.27;;;;;;;;;;4974530;28;20235;-70
2022/12/19 03:01:20;;;;;;;43.90;22.27;;;;;;;;;;4955572;28;20678;-69
2022/12/19 03:03:51;;;;;;;45.53;23.03;;;;;;;;;;4979907;28;20308;-70
2022/12/19 03:06:24;;;;;;;40.43;21.77;;;;;;;;;;4983289;28;20614;-70
2022/12/19 03:08:54;;;;;;;42.23;20.93;;;;;;;;;;4982278;28;20292;-70
2022/12/19 03:11:19;;;;;;;39.70;20.07;;;;;;;;;;4981944;28;20209;-69
2022/12/19 03:13:45;;;;;;;38.00;19.53;;;;;;;;;;4979676;28;20711;-69
2022/12/19 03:16:11;;;;;;;43.27;21.80;;;;;;;;;;4967942;28;20264;-68
2022/12/19 03:18:36;;;;;;;45.20;22.57;;;;;;;;;;4962065;28;20511;-68
2022/12/19 03:21:03;;;;;;;45.53;22.80;;;;;;;;;;4956270;28;20216;-68
2022/12/19 03:23:28;;;;;;;39.40;20.37;;;;;;;;;;4955809;28;20705;-69
2022/12/19 03:25:55;;;;;;;38.50;21.63;;;;;;;;;;4975951;28;20225;-69
2022/12/19 03:28:22;;;;;;;37.87;20.63;;;;;;;;;;4981291;28;20232;-68
2022/12/19 03:30:48;;;;;;;45.13;22.47;;;;;;;;;;4982771;28;20219;-69
2022/12/19 03:33:13;;;;;;;41.77;23.00;;;;;;;;;;4982790;28;20213;-69
2022/12/19 03:35:38;;;;;;;42.37;22.67;;;;;;;;;;4981409;28;20217;-69
2022/12/19 03:38:03;;;;;;;44.40;22.70;;;;;;;;;;4983011;28;20231;-69
2022/12/19 03:40:29;;;;;;;37.20;20.53;;;;;;;;;;4982962;28;20593;-69
2022/12/19 03:43:08;;;;;;;41.80;23.03;;;;;;;;;;4974845;28;20213;-69
2022/12/19 03:45:39;;;;;;;45.10;22.30;;;;;;;;;;4993029;28;20463;-70
2022/12/19 03:48:06;;;;;;;39.67;20.97;;;;;;;;;;4994130;28;20287;-69
2022/12/19 03:50:33;;;;;;;39.77;21.17;;;;;;;;;;5001845;28;20634;-69
2022/12/19 03:53:02;;;;;;;43.07;22.20;;;;;;;;;;5001638;28;20220;-69
2022/12/19 03:55:29;;;;;;;44.60;21.80;;;;;;;;;;4999362;28;20673;-69
2022/12/19 03:57:57;;;;;;;43.43;22.17;;;;;;;;;;4999356;28;20258;-69
2022/12/19 04:00:24;;;;;;;57.93;25.13;;;;;;;;;;4997489;28;20220;-69
2022/12/19 04:02:49;;;;;;;40.93;20.80;;;;;;;;;;5002790;28;20623;-69
2022/12/19 04:05:17;;;;;;;41.53;21.70;;;;;;;;;;4991661;28;20684;-69
2022/12/19 04:07:43;;;;;;;48.77;23.27;;;;;;;;;;4995621;28;20696;-71
2022/12/19 04:10:09;;;;;;;43.47;22.23;;;;;;;;;;4995008;28;20209;-68
2022/12/19 04:12:37;;;;;;;38.77;19.97;;;;;;;;;;4981785;28;20230;-67
2022/12/19 04:15:03;;;;;;;45.60;22.13;;;;;;;;;;4979455;28;20688;-67
2022/12/19 04:17:33;;;;;;;34.77;20.03;;;;;;;;;;4981892;28;20213;-68
2022/12/19 04:20:00;;;;;;;39.27;20.93;;;;;;;;;;4993173;28;20276;-67
2022/12/19 04:22:27;;;;;;;41.90;21.93;;;;;;;;;;4993374;28;20255;-68
2022/12/19 04:24:52;;;;;;;38.00;20.50;;;;;;;;;;4984663;28;20212;-68
2022/12/19 04:27:18;;;;;;;38.70;20.17;;;;;;;;;;4986203;28;20236;-68
2022/12/19 04:29:43;;;;;;;44.07;22.53;;;;;;;;;;4985382;28;20727;-68
2022/12/19 04:32:08;;;;;;;38.73;20.47;;;;;;;;;;4983880;28;20668;-67
2022/12/19 04:34:34;;;;;;;41.43;21.20;;;;;;;;;;4985214;28;20223;-67
2022/12/19 04:37:05;;;;;;;36.97;20.47;;;;;;;;;;4982374;28;20339;-67
2022/12/19 04:39:30;;;;;;;36.70;19.53;;;;;;;;;;4980142;28;20270;-67
2022/12/19 04:41:55;;;;;;;38.60;19.70;;;;;;;;;;4998008;28;20510;-67
2022/12/19 04:44:21;;;;;;;38.97;20.50;;;;;;;;;;5002484;28;20312;-66
2022/12/19 04:46:46;;;;;;;44.83;21.97;;;;;;;;;;5004799;28;20590;-66
2022/12/19 04:49:11;;;;;;;41.73;22.03;;;;;;;;;;5005424;28;20267;-66
2022/12/19 04:51:37;;;;;;;37.03;20.20;;;;;;;;;;5005736;28;20551;-66
2022/12/19 04:54:02;;;;;;;47.20;23.60;;;;;;;;;;5004328;28;20675;-67
2022/12/19 04:56:27;;;;;;;37.90;20.20;;;;;;;;;;4994343;28;20303;-67
2022/12/19 04:58:56;;;;;;;45.27;22.40;;;;;;;;;;4984318;28;20640;-67
2022/12/19 05:01:22;;;;;;;36.23;19.93;;;;;;;;;;4995453;28;20231;-68
2022/12/19 05:03:47;;;;;;;35.87;20.47;;;;;;;;;;4993606;28;20570;-67
2022/12/19 05:06:13;;;;;;;38.17;21.13;;;;;;;;;;4998664;28;20988;-67
2022/12/19 05:08:39;;;;;;;37.53;20.63;;;;;;;;;;5005065;28;20698;-67
2022/12/19 05:11:04;;;;;;;38.67;20.67;;;;;;;;;;5001591;28;20221;-67
2022/12/19 05:13:29;;;;;;;34.27;19.17;;;;;;;;;;4985982;28;20221;-67
2022/12/19 05:15:58;;;;;;;34.17;19.23;;;;;;;;;;4985455;28;20213;-67
2022/12/19 05:18:24;;;;;;;41.17;21.43;;;;;;;;;;5004714;28;20676;-67
2022/12/19 05:20:49;;;;;;;40.03;20.97;;;;;;;;;;5005175;28;20235;-67
2022/12/19 05:23:14;;;;;;;32.83;19.03;;;;;;;;;;4996600;28;20330;-68
2022/12/19 05:25:39;;;;;;;35.17;19.40;;;;;;;;;;4997032;28;20237;-68
2022/12/19 05:28:05;;;;;;;30.57;16.60;;;;;;;;;;4997439;28;20474;-67
2022/12/19 05:30:30;;;;;;;32.53;18.37;;;;;;;;;;5002865;28;20208;-67
2022/12/19 05:32:55;;;;;;;33.47;18.90;;;;;;;;;;5005097;28;20660;-67
2022/12/19 05:35:21;;;;;;;31.70;18.13;;;;;;;;;;5003652;28;20260;-66
2022/12/19 05:37:46;;;;;;;30.23;17.27;;;;;;;;;;5005282;28;20224;-66
2022/12/19 05:40:11;;;;;;;29.07;17.07;;;;;;;;;;5004264;28;20223;-66
2022/12/19 05:42:37;;;;;;;32.07;17.60;;;;;;;;;;5004095;28;20276;-67
2022/12/19 05:45:02;;;;;;;43.47;20.13;;;;;;;;;;4998971;28;20220;-66
2022/12/19 05:47:27;;;;;;;27.43;15.93;;;;;;;;;;4996626;28;20699;-66
2022/12/19 05:49:53;;;;;;;29.10;16.60;;;;;;;;;;4995980;28;20541;-66
2022/12/19 05:52:18;;;;;;;30.10;17.33;;;;;;;;;;5001451;28;20221;-66
2022/12/19 05:54:43;;;;;;;25.67;14.73;;;;;;;;;;5004842;28;20613;-66
2022/12/19 05:57:08;;;;;;;26.60;16.37;;;;;;;;;;4986933;28;20257;-66
2022/12/19 05:59:33;;;;;;;26.43;16.43;;;;;;;;;;4985225;28;20220;-66
2022/12/19 06:01:59;;;;;;;31.73;17.17;;;;;;;;;;4985029;28;20803;-66
2022/12/19 06:04:24;;;;;;;25.27;15.80;;;;;;;;;;4983914;28;20217;-66
2022/12/19 06:06:49;;;;;;;25.80;15.73;;;;;;;;;;4982758;28;20225;-66
2022/12/19 06:09:15;;;;;;;28.50;15.30;;;;;;;;;;4977660;28;20252;-67
2022/12/19 06:11:40;;;;;;;25.27;15.60;;;;;;;;;;4976760;28;20848;-67
2022/12/19 06:14:05;;;;;;;26.60;16.13;;;;;;;;;;4978735;28;20299;-67
2022/12/19 06:16:30;;;;;;;24.60;15.03;;;;;;;;;;4985180;28;20212;-67
2022/12/19 06:18:56;;;;;;;23.63;14.67;;;;;;;;;;4984279;28;20216;-67
2022/12/19 06:21:21;;;;;;;29.47;15.93;;;;;;;;;;5003314;28;20821;-67
2022/12/19 06:23:46;;;;;;;30.23;17.03;;;;;;;;;;5003049;28;20235;-68
2022/12/19 06:26:13;;;;;;;24.87;14.77;;;;;;;;;;5002547;28;20323;-66
2022/12/19 06:28:38;;;;;;;26.03;15.23;;;;;;;;;;5003593;28;20216;-67
2022/12/19 06:31:03;;;;;;;24.70;15.00;;;;;;;;;;4989598;28;20219;-67
2022/12/19 06:33:29;;;;;;;24.40;14.37;;;;;;;;;;4975707;28;20229;-67
2022/12/19 06:35:58;;;;;;;24.60;14.40;;;;;;;;;;4993891;28;20239;-67
2022/12/19 06:38:23;;;;;;;26.60;14.33;;;;;;;;;;5017559;28;20212;-68
2022/12/19 06:43:33;;;;;;;25.97;14.67;;;;;;;;;;4983769;28;20223;-68
2022/12/19 06:45:58;;;;;;;23.63;13.70;;;;;;;;;;4983018;28;20683;-68
2022/12/19 06:48:23;;;;;;;20.67;12.63;;;;;;;;;;4983375;28;20213;-68
2022/12/19 06:50:48;;;;;;;19.60;12.67;;;;;;;;;;4983432;28;20279;-70
2022/12/19 06:53:14;;;;;;;25.73;16.03;;;;;;;;;;4973199;28;20629;-66
2022/12/19 06:55:39;;;;;;;18.70;12.40;;;;;;;;;;4965471;28;20583;-69
2022/12/19 06:58:04;;;;;;;27.90;14.37;;;;;;;;;;4957408;28;20225;-66
2022/12/19 07:00:30;;;;;;;26.47;17.77;;;;;;;;;;4961499;28;20424;-68
2022/12/19 07:02:55;;;;;;;25.67;14.87;;;;;;;;;;4964199;28;20666;-69
2022/12/19 07:05:20;;;;;;;23.60;13.70;;;;;;;;;;4964442;28;20222;-68
2022/12/19 07:07:45;;;;;;;20.13;13.63;;;;;;;;;;4963825;28;20210;-68
2022/12/19 07:10:11;;;;;;;24.20;13.10;;;;;;;;;;4973009;28;20205;-68
2022/12/19 07:12:36;;;;;;;24.90;15.37;;;;;;;;;;4971517;28;20221;-68
2022/12/19 07:15:01;;;;;;;21.20;13.97;;;;;;;;;;4960111;28;20246;-68
2022/12/19 07:17:26;;;;;;;27.40;16.87;;;;;;;;;;4956492;28;20752;-69
2022/12/19 07:19:52;;;;;;;20.40;13.60;;;;;;;;;;4956384;28;20590;-69
2022/12/19 07:22:17;;;;;;;19.80;13.10;;;;;;;;;;4975525;28;20213;-68
2022/12/19 07:24:42;;;;;;;31.93;18.70;;;;;;;;;;4980658;28;20214;-69
2022/12/19 07:27:08;;;;;;;21.83;14.67;;;;;;;;;;4963626;28;20241;-66
2022/12/19 07:29:33;;;;;;;23.57;16.93;;;;;;;;;;4963094;28;20778;-70
2022/12/19 07:31:58;;;;;;;19.23;12.00;;;;;;;;;;4964233;28;20232;-70
2022/12/19 07:34:23;;;;;;;19.27;12.60;;;;;;;;;;4963872;28;20214;-69
2022/12/19 07:36:50;;;;;;;22.67;12.83;;;;;;;;;;4962796;28;21228;-69
2022/12/19 07:39:15;;;;;;;23.53;12.93;;;;;;;;;;4956355;28;20562;-68
2022/12/19 07:41:40;;;;;;;19.03;12.40;;;;;;;;;;4955854;28;20708;-69
2022/12/19 07:44:06;;;;;;;24.93;14.40;;;;;;;;;;4956508;28;20218;-68
2022/12/19 07:46:31;;;;;;;21.30;12.87;;;;;;;;;;4963553;28;20696;-69
2022/12/19 07:48:57;;;;;;;20.57;12.67;;;;;;;;;;4963959;28;20201;-70
2022/12/19 07:51:22;;;;;;;19.53;11.87;;;;;;;;;;4963062;28;20217;-69
2022/12/19 07:53:48;;;;;;;17.93;11.47;;;;;;;;;;4963949;28;20213;-70
2022/12/19 07:56:13;;;;;;;20.17;12.13;;;;;;;;;;4962781;28;20213;-71
2022/12/19 07:58:39;;;;;;;23.83;13.87;;;;;;;;;;4963854;28;20220;-71
2022/12/19 08:01:05;;;;;;;20.00;12.30;;;;;;;;;;4968953;28;20346;-72
2022/12/19 08:03:30;;;;;;;19.30;12.03;;;;;;;;;;4980870;28;20640;-72
2022/12/19 08:06:02;;;;;;;19.70;12.63;;;;;;;;;;4981339;28;20250;-72
2022/12/19 08:08:27;;;;;;;21.10;13.07;;;;;;;;;;4998596;28;20323;-72
2022/12/19 08:10:53;;;;;;;19.63;12.20;;;;;;;;;;4989045;28;20712;-71
2022/12/19 08:13:18;;;;;;;19.43;12.90;;;;;;;;;;4991868;28;20229;-72
2022/12/19 08:15:43;;;;;;;20.67;12.87;;;;;;;;;;4992887;28;20300;-73
2022/12/19 08:18:09;;;;;;;20.97;13.37;;;;;;;;;;4991709;28;20212;-72
2022/12/19 08:20:34;;;;;;;17.67;11.53;;;;;;;;;;4993622;28;20225;-73
2022/12/19 08:22:59;;;;;;;19.60;11.43;;;;;;;;;;5008602;28;20301;-72
2022/12/19 08:25:24;;;;;;;17.83;11.00;;;;;;;;;;5010163;28;20554;-72
2022/12/19 08:27:50;;;;;;;14.87;9.60;;;;;;;;;;5007956;28;20339;-71
2022/12/19 08:30:15;;;;;;;19.53;11.33;;;;;;;;;;4998422;28;20626;-71
2022/12/19 08:32:40;;;;;;;17.67;10.17;;;;;;;;;;5002809;28;20200;-71
2022/12/19 08:35:06;;;;;;;16.33;9.70;;;;;;;;;;5007532;28;20208;-69
2022/12/19 08:37:31;;;;;;;15.63;9.00;;;;;;;;;;5012057;28;20278;-72
2022/12/19 08:39:56;;;;;;;20.33;11.50;;;;;;;;;;5005672;28;20220;-71
2022/12/19 08:42:22;;;;;;;15.30;8.90;;;;;;;;;;5001056;28;20699;-71
2022/12/19 08:44:47;;;;;;;19.10;10.97;;;;;;;;;;5011830;28;20214;-70
2022/12/19 08:47:12;;;;;;;16.60;9.37;;;;;;;;;;5010614;28;20577;-71
2022/12/19 08:49:38;;;;;;;13.40;8.27;;;;;;;;;;4998755;28;20221;-71
2022/12/19 08:52:03;;;;;;;14.57;8.37;;;;;;;;;;5003374;28;20232;-71
2022/12/19 08:54:28;;;;;;;13.57;8.67;;;;;;;;;;5004755;28;20224;-71
2022/12/19 08:56:53;;;;;;;10.47;7.50;;;;;;;;;;5004965;28;20304;-72
2022/12/19 08:59:19;;;;;;;11.63;7.33;;;;;;;;;;4999715;28;20216;-72
2022/12/19 09:01:45;;;;;;;11.50;7.67;;;;;;;;;;5005503;28;20746;-72
2022/12/19 09:04:10;;;;;;;13.50;7.70;;;;;;;;;;4999543;28;20296;-71
2022/12/19 09:06:35;;;;;;;13.40;8.03;;;;;;;;;;4996593;28;20240;-72
2022/12/19 09:09:01;;;;;;;11.80;7.67;;;;;;;;;;4994965;28;20624;-67
2022/12/19 09:11:27;;;;;;;11.30;7.77;;;;;;;;;;4995707;28;20240;-71
2022/12/19 09:13:54;;;;;;;13.23;7.20;;;;;;;;;;4996449;28;20213;-72
2022/12/19 09:16:20;;;;;;;12.33;7.60;;;;;;;;;;5006117;28;20247;-72
2022/12/19 09:18:46;;;;;;;10.20;7.00;;;;;;;;;;5014909;28;20229;-72
2022/12/19 09:21:12;;;;;;;11.33;7.37;;;;;;;;;;5013333;28;20208;-72
2022/12/19 09:23:37;;;;;;;11.43;7.60;;;;;;;;;;5014855;28;20212;-73
2022/12/19 09:26:04;;;;;;;10.20;6.77;;;;;;;;;;5014614;28;20286;-72
2022/12/19 09:28:29;;;;;;;11.30;6.83;;;;;;;;;;5014182;28;20262;-72
2022/12/19 09:30:56;;;;;;;10.98;6.90;;;;;;;;;;5014512;28;20295;-72
2022/12/19 09:33:22;;;;;;;14.27;7.77;;;;;;;;;;5014293;28;20615;-72
2022/12/19 09:35:49;;;;;;;10.37;7.00;;;;;;;;;;5013905;28;20216;-73
2022/12/19 09:38:14;;;;;;;13.10;6.93;;;;;;;;;;5014500;28;20231;-72
2022/12/19 09:40:45;;;;;;;9.97;6.60;;;;;;;;;;5014927;28;20224;-74
2022/12/19 09:43:12;;;;;;;12.27;6.70;;;;;;;;;;5012144;28;20687;-72
2022/12/19 09:45:39;;;;;;;12.63;6.73;;;;;;;;;;5009697;28;20240;-72
2022/12/19 09:48:09;;;;;;;10.33;6.80;;;;;;;;;;5007355;28;20228;-72
2022/12/19 09:50:41;;;;;;;11.83;7.20;;;;;;;;;;5011848;28;20295;-72
2022/12/19 09:53:09;;;;;;;12.53;7.00;;;;;;;;;;5012684;28;20300;-71
2022/12/19 09:55:35;;;;;;;12.27;6.83;;;;;;;;;;5009483;28;20206;-72
2022/12/19 09:58:04;;;;;;;11.90;6.60;;;;;;;;;;4994582;28;20240;-69
2022/12/19 10:00:32;;;;;;;10.27;6.73;;;;;;;;;;5008562;28;20216;-72
2022/12/19 10:02:58;;;;;;;11.87;7.00;;;;;;;;;;5003248;28;20208;-72
2022/12/19 10:05:26;;;;;;;11.77;6.87;;;;;;;;;;5004356;28;20307;-72
2022/12/19 10:07:52;;;;;;;12.87;7.07;;;;;;;;;;5014074;28;20217;-72
2022/12/19 10:10:20;;;;;;;12.30;6.93;;;;;;;;;;5012935;28;20299;-72
2022/12/19 10:12:46;;;;;;;10.20;6.90;;;;;;;;;;4990840;28;20206;-72
2022/12/19 10:15:22;;;;;;;12.87;7.70;;;;;;;;;;4982397;28;20210;-71
2022/12/19 10:18:06;;;;;;;11.77;7.10;;;;;;;;;;4974300;28;20236;-72
2022/12/19 10:20:38;;;;;;;9.80;6.35;;;;;;;;;;4974804;28;20228;-72
2022/12/19 10:23:10;;;;;;;12.30;6.80;;;;;;;;;;4974243;28;20210;-71
2022/12/19 10:25:38;;;;;;;10.47;6.53;;;;;;;;;;4974169;28;20326;-72
2022/12/19 10:28:11;;;;;;;12.07;7.00;;;;;;;;;;4973231;28;20242;-72
2022/12/19 10:30:38;;;;;;;10.77;6.97;;;;;;;;;;4972561;28;20224;-72
2022/12/19 10:33:13;;;;;;;11.80;6.70;;;;;;;;;;4972941;28;20272;-72
2022/12/19 10:35:41;;;;;;;12.73;6.97;;;;;;;;;;4974888;28;20342;-72
2022/12/19 10:38:12;;;;;;;10.73;6.88;;;;;;;;;;4973353;28;20218;-71
2022/12/19 10:40:39;;;;;;;9.90;6.63;;;;;;;;;;4974658;28;20214;-72
2022/12/19 10:43:06;;;;;;;13.70;7.70;;;;;;;;;;4973054;28;20704;-72
2022/12/19 10:45:33;;;;;;;12.27;7.00;;;;;;;;;;4972021;28;20209;-72
2022/12/19 10:47:58;;;;;;;9.93;6.87;;;;;;;;;;5008166;28;20216;-72
2022/12/19 10:50:24;;;;;;;13.60;6.97;;;;;;;;;;5004997;28;20266;-72
2022/12/19 10:52:51;;;;;;;12.00;6.80;;;;;;;;;;5012509;28;20212;-72
2022/12/19 10:55:29;;;;;;;9.53;6.73;;;;;;;;;;5010657;28;20209;-72
2022/12/19 10:57:58;;;;;;;11.17;7.30;;;;;;;;;;4992618;28;20259;-72
2022/12/19 11:00:23;;;;;;;16.70;9.27;;;;;;;;;;5005207;28;20212;-72
2022/12/19 11:02:50;;;;;;;53.80;23.00;;;;;;;;;;5013101;28;20216;-72
2022/12/19 11:05:21;;;;;;;13.03;7.27;;;;;;;;;;5003254;28;20749;-72
2022/12/19 11:07:59;;;;;;;10.33;6.60;;;;;;;;;;5012098;28;20232;-72
2022/12/19 11:10:34;;;;;;;10.20;6.50;;;;;;;;;;5012635;28;20560;-72
2022/12/19 11:12:59;;;;;;;11.40;6.23;;;;;;;;;;5002514;28;20668;-72
2022/12/19 11:15:24;;;;;;;11.00;6.03;;;;;;;;;;4992408;28;20224;-72
2022/12/19 11:17:50;;;;;;;10.60;6.87;;;;;;;;;;4992046;28;20247;-72
2022/12/19 11:20:18;;;;;;;12.77;6.80;;;;;;;;;;4992150;28;20566;-72
2022/12/19 11:22:48;;;;;;;10.17;6.47;;;;;;;;;;4993023;28;20220;-72
2022/12/19 11:25:15;;;;;;;9.50;5.73;;;;;;;;;;4992708;28;20586;-73
2022/12/19 11:27:41;;;;;;;9.38;5.75;;;;;;;;;;4992534;28;20221;-72
2022/12/19 11:30:08;;;;;;;12.73;6.67;;;;;;;;;;4991143;28;20744;-72
2022/12/19 11:32:37;;;;;;;9.33;6.20;;;;;;;;;;4992066;28;20231;-72
2022/12/19 11:35:04;;;;;;;10.70;5.97;;;;;;;;;;4991997;28;20213;-72
2022/12/19 11:37:36;;;;;;;10.70;5.67;;;;;;;;;;4992219;28;20213;-72
2022/12/19 11:40:02;;;;;;;8.03;5.50;;;;;;;;;;4992284;28;20212;-72
2022/12/19 11:42:28;;;;;;;9.70;5.30;;;;;;;;;;4991166;28;20217;-72
2022/12/19 11:44:56;;;;;;;10.53;6.90;;;;;;;;;;4999592;28;20515;-70
2022/12/19 11:47:34;;;;;;;10.30;6.07;;;;;;;;;;4991240;28;20265;-69
2022/12/19 11:50:01;;;;;;;8.87;5.77;;;;;;;;;;4992221;28;20235;-69
2022/12/19 11:52:40;;;;;;;8.83;5.80;;;;;;;;;;4979687;28;20677;-71
2022/12/19 11:55:07;;;;;;;10.32;5.72;;;;;;;;;;4972537;28;20318;-68
2022/12/19 11:57:32;;;;;;;10.80;5.80;;;;;;;;;;5004211;28;20236;-70
2022/12/19 11:59:57;;;;;;;8.87;5.23;;;;;;;;;;4986816;28;20233;-70
2022/12/19 12:02:26;;;;;;;11.63;6.13;;;;;;;;;;4972214;28;20661;-70
2022/12/19 12:05:04;;;;;;;8.97;5.90;;;;;;;;;;4973187;28;20673;-69
2022/12/19 12:07:31;;;;;;;10.20;6.30;;;;;;;;;;4992552;28;20221;-70
2022/12/19 12:09:57;;;;;;;10.30;5.72;;;;;;;;;;4991793;28;20221;-71
2022/12/19 12:12:29;;;;;;;9.25;6.10;;;;;;;;;;4993499;28;20224;-71
2022/12/19 12:15:13;;;;;;;9.85;5.78;;;;;;;;;;5010581;28;20296;-69
2022/12/19 12:17:41;;;;;;;9.82;6.25;;;;;;;;;;5002396;28;20212;-74
2022/12/19 12:20:07;;;;;;;11.35;6.20;;;;;;;;;;4993862;28;20272;-70
2022/12/19 12:22:36;;;;;;;8.43;5.72;;;;;;;;;;4992539;28;20209;-71
2022/12/19 12:25:02;;;;;;;11.07;6.33;;;;;;;;;;4990007;28;20213;-70
2022/12/19 12:27:28;;;;;;;10.95;6.05;;;;;;;;;;4995279;28;20213;-71
2022/12/19 12:29:59;;;;;;;8.65;5.60;;;;;;;;;;4995927;28;20209;-71
2022/12/19 12:32:31;;;;;;;11.00;5.68;;;;;;;;;;4996974;28;20209;-72
2022/12/19 12:35:02;;;;;;;8.35;5.22;;;;;;;;;;4991388;28;20205;-71
2022/12/19 12:37:38;;;;;;;11.07;4.72;;;;;;;;;;4996279;28;20216;-71
2022/12/19 12:40:28;;;;;;;7.97;4.87;;;;;;;;;;4995380;28;20271;-71
2022/12/19 12:42:53;;;;;;;8.32;4.82;;;;;;;;;;4976575;28;20226;-73
2022/12/19 12:45:21;;;;;;;7.65;4.95;;;;;;;;;;4975289;28;20779;-72
2022/12/19 12:47:47;;;;;;;10.03;3.70;;;;;;;;;;4976221;28;20226;-72
2022/12/19 12:50:13;;;;;;;8.13;4.43;;;;;;;;;;5001998;28;20223;-72
2022/12/19 12:52:42;;;;;;;8.30;4.50;;;;;;;;;;4999307;28;20259;-72
2022/12/19 12:55:16;;;;;;;7.30;4.35;;;;;;;;;;5004880;28;20216;-72
2022/12/19 12:57:42;;;;;;;16.20;9.13;;;;;;;;;;5003569;28;20236;-72
2022/12/19 13:00:15;;;;;;;39.87;21.03;;;;;;;;;;5003056;28;20708;-72
2022/12/19 13:02:41;;;;;;;9.77;5.60;;;;;;;;;;4996005;28;20233;-72
2022/12/19 13:05:21;;;;;;;8.05;4.93;;;;;;;;;;4993854;28;20302;-72
2022/12/19 13:07:50;;;;;;;8.07;4.37;;;;;;;;;;4995593;28;20232;-72
2022/12/19 13:10:18;;;;;;;6.87;4.73;;;;;;;;;;4995101;28;20221;-70
2022/12/19 13:12:59;;;;;;;8.90;4.47;;;;;;;;;;4993393;28;20209;-73
2022/12/19 13:15:25;;;;;;;6.93;3.90;;;;;;;;;;4998946;28;20218;-73
2022/12/19 13:17:51;;;;;;;6.57;4.00;;;;;;;;;;5015350;28;20278;-73
2022/12/19 13:20:16;;;;;;;7.55;4.53;;;;;;;;;;5013892;28;20220;-73
2022/12/19 13:22:42;;;;;;;6.13;4.03;;;;;;;;;;5015134;28;20299;-72
2022/12/19 13:25:25;;;;;;;9.33;4.73;;;;;;;;;;5014637;28;20216;-72
2022/12/19 13:27:57;;;;;;;7.90;4.93;;;;;;;;;;5013599;28;20239;-72
2022/12/19 13:30:22;;;;;;;7.55;4.80;;;;;;;;;;4994840;28;20565;-72
2022/12/19 13:32:47;;;;;;;7.65;4.45;;;;;;;;;;4994064;28;20213;-72
2022/12/19 13:35:14;;;;;;;7.85;4.72;;;;;;;;;;4994074;28;20221;-71
2022/12/19 13:37:41;;;;;;;8.77;4.03;;;;;;;;;;5000047;28;20208;-72
2022/12/19 13:40:15;;;;;;;6.80;3.95;;;;;;;;;;5002448;28;20683;-69
2022/12/19 13:45:33;;;;;;;6.40;4.20;;;;;;;;;;4981208;28;20756;-71
2022/12/19 13:47:59;;;;;;;5.68;3.85;;;;;;;;;;4973798;28;20316;-71
2022/12/19 13:50:25;;;;;;;7.10;3.90;;;;;;;;;;4974016;28;20214;-72
2022/12/19 13:52:51;;;;;;;6.82;4.03;;;;;;;;;;4975865;28;20206;-72
2022/12/19 13:55:16;;;;;;;8.20;4.18;;;;;;;;;;4976397;28;20285;-72
2022/12/19 13:57:41;;;;;;;9.52;3.88;;;;;;;;;;5002701;28;20583;-73
2022/12/19 14:00:07;;;;;;;8.00;4.05;;;;;;;;;;5000625;28;20680;-71
2022/12/19 14:02:34;;;;;;;7.35;3.88;;;;;;;;;;4994184;28;20221;-72
2022/12/19 14:04:59;;;;;;;7.22;3.53;;;;;;;;;;4994550;28;20403;-72
2022/12/19 14:07:26;;;;;;;7.13;4.05;;;;;;;;;;4994306;28;20328;-71
2022/12/19 14:09:51;;;;;;;7.10;4.00;;;;;;;;;;5000299;28;20208;-72
2022/12/19 14:15:12;;;;;;;6.22;4.00;;;;;;;;;;5005296;28;20216;-73
2022/12/19 14:15:20;;;;;;;8.00;4.40;;;;;;;;;;5004314;28;20220;-71
2022/12/19 14:17:47;;;;;;;6.97;4.03;;;;;;;;;;5006919;28;20222;-72
2022/12/19 14:20:21;;;;;;;7.50;4.18;;;;;;;;;;5007926;28;20220;-72
2022/12/19 14:22:47;;;;;;;7.55;4.70;;;;;;;;;;5007250;28;20216;-72
2022/12/19 14:25:12;;;;;;;7.65;4.88;;;;;;;;;;5007399;28;20224;-72
2022/12/19 14:27:38;;;;;;;7.43;4.40;;;;;;;;;;5006433;28;20229;-72